Time;durP1;ratioP1;P1;durP2;ratioP2;P2;SDS_P1;SDS_P2;PMS_P1;PMS_P2;Temp;Humidity;BMP_temperature;BMP_pressure;BME280_temperature;BME280_humidity;BME280_pressure;Samples;Min_cycle;Max_cycle;Signal;HPM_P1;HPM_P2
2023/01/17 00:02:07;;;;;;;1.95;1.40;;;;;;;4.72;70.34;97632.69;6187104;23;20172;-71
2023/01/17 00:10:16;;;;;;;3.75;2.00;;;;;;;4.73;70.05;97620.91;6190414;23;20165;-69
2023/01/17 00:12:50;;;;;;;1.67;1.58;;;;;;;4.79;69.77;97612.69;6186877;23;20180;-72
2023/01/17 00:15:22;;;;;;;3.35;2.35;;;;;;;4.74;69.95;97617.97;6186802;23;20598;-72
2023/01/17 00:17:52;;;;;;;2.67;2.45;;;;;;;4.73;69.81;97613.69;6197313;23;20158;-72
2023/01/17 01:35:07;;;;;;;3.15;2.15;;;;;;;4.24;73.57;97568.97;6210667;23;20196;-72
2023/01/17 01:37:37;;;;;;;3.05;1.90;;;;;;;4.23;73.35;97564.69;6210440;23;20185;-72
2023/01/17 01:40:08;;;;;;;3.05;1.60;;;;;;;4.12;73.71;97561.00;6210070;23;20158;-71
2023/01/17 01:42:37;;;;;;;3.17;1.90;;;;;;;3.99;74.41;97558.66;6210881;23;20145;-70
2023/01/17 01:45:17;;;;;;;2.95;2.35;;;;;;;3.94;75.21;97554.03;6209673;23;20212;-72
2023/01/17 01:47:47;;;;;;;3.00;2.53;;;;;;;3.92;74.57;97556.13;6208137;23;20165;-71
2023/01/17 01:50:19;;;;;;;2.25;1.52;;;;;;;3.94;74.75;97546.00;6209352;23;20185;-72
2023/01/17 01:52:56;;;;;;;3.08;1.80;;;;;;;3.99;75.37;97549.81;6208505;23;20268;-72
2023/01/17 01:55:29;;;;;;;3.38;2.50;;;;;;;4.06;74.78;97535.25;6208243;23;20193;-71
2023/01/17 01:58:04;;;;;;;4.88;2.15;;;;;;;4.18;74.14;97537.84;6209126;23;20157;-73
2023/01/17 02:00:39;;;;;;;2.55;1.95;;;;;;;4.09;74.20;97544.63;6210136;23;20220;-72
2023/01/17 02:03:13;;;;;;;3.05;1.92;;;;;;;4.26;73.73;97545.47;6210971;23;20146;-70
2023/01/17 02:05:43;;;;;;;6.38;2.25;;;;;;;4.28;74.13;97548.72;6210306;23;20187;-71
2023/01/17 02:08:16;;;;;;;4.65;2.00;;;;;;;4.24;72.97;97544.91;6210439;23;20184;-71
2023/01/17 02:10:46;;;;;;;2.00;1.42;;;;;;;4.33;72.77;97530.06;6210842;23;20196;-71
2023/01/17 02:13:19;;;;;;;4.25;2.65;;;;;;;4.29;73.07;97535.09;6210199;23;20186;-71
2023/01/17 02:15:57;;;;;;;2.72;2.35;;;;;;;4.28;73.01;97535.31;6210275;23;20189;-71
2023/01/17 02:18:38;;;;;;;3.75;2.20;;;;;;;4.23;73.62;97532.56;6210009;23;20191;-71
2023/01/17 02:21:24;;;;;;;2.65;2.42;;;;;;;4.32;73.01;97528.44;6210903;23;20145;-69
2023/01/17 02:24:31;;;;;;;2.42;1.90;;;;;;;4.32;73.57;97529.25;6210296;23;20184;-71
2023/01/17 02:27:15;;;;;;;2.28;1.90;;;;;;;4.17;73.20;97537.03;6210175;23;20149;-70
2023/01/17 02:30:14;;;;;;;2.47;1.90;;;;;;;4.13;73.29;97533.22;6211114;23;20186;-71
2023/01/17 02:33:01;;;;;;;1.70;1.60;;;;;;;4.02;74.15;97530.63;6211119;23;20145;-70
2023/01/17 02:35:37;;;;;;;3.17;1.92;;;;;;;4.03;74.15;97532.22;6210627;23;20173;-72
2023/01/17 02:38:17;;;;;;;2.88;2.20;;;;;;;3.88;74.55;97532.78;6213050;23;20129;-71
2023/01/17 02:40:49;;;;;;;3.22;2.10;;;;;;;3.86;74.74;97530.34;6211853;23;20157;-70
2023/01/17 02:43:20;;;;;;;3.03;1.83;;;;;;;3.87;75.04;97531.94;6211498;23;20157;-71
2023/01/17 02:45:49;;;;;;;2.70;1.90;;;;;;;3.82;74.99;97525.72;6211242;23;20173;-70
2023/01/17 02:48:24;;;;;;;3.10;2.03;;;;;;;3.75;75.24;97525.06;6201057;23;20212;-71
2023/01/17 02:51:20;;;;;;;3.90;2.40;;;;;;;3.79;75.48;97524.34;6211296;23;20153;-71
2023/01/17 02:54:06;;;;;;;3.70;2.10;;;;;;;3.80;75.63;97525.16;6211783;23;20212;-70
2023/01/17 03:00:26;;;;;;;3.10;2.13;;;;;;;4.01;74.70;97542.38;6187735;23;20485;-72
2023/01/17 03:03:04;;;;;;;2.65;2.10;;;;;;;4.11;74.45;97539.88;6186012;23;20617;-71
2023/01/17 03:05:41;;;;;;;2.13;1.90;;;;;;;4.21;74.41;97542.72;6185681;23;20649;-71
2023/01/17 03:08:12;;;;;;;3.22;1.65;;;;;;;4.21;74.64;97538.16;6185531;23;20169;-73
2023/01/17 03:10:43;;;;;;;3.10;2.30;;;;;;;4.52;73.81;97547.47;6184754;23;20495;-72
2023/01/17 03:13:12;;;;;;;3.60;2.58;;;;;;;4.45;74.42;97538.00;6184101;23;20178;-72
2023/01/17 03:15:42;;;;;;;3.50;2.15;;;;;;;4.48;74.79;97538.31;6184453;23;20190;-70
2023/01/17 03:18:14;;;;;;;2.97;2.38;;;;;;;4.49;75.97;97539.94;6185725;23;20173;-71
2023/01/17 03:20:45;;;;;;;4.07;2.35;;;;;;;4.45;76.73;97533.47;6186727;23;20626;-70
2023/01/17 03:23:14;;;;;;;4.15;2.20;;;;;;;4.50;76.13;97541.59;6187347;23;20193;-71
2023/01/17 03:25:43;;;;;;;2.92;2.15;;;;;;;4.42;77.16;97533.94;6186109;23;20223;-74
2023/01/17 03:28:13;;;;;;;2.25;2.05;;;;;;;4.42;77.28;97536.63;6186256;23;20193;-72
2023/01/17 03:30:42;;;;;;;3.70;2.10;;;;;;;4.46;77.98;97534.25;6186558;23;20169;-71
2023/01/17 03:33:11;;;;;;;3.10;2.00;;;;;;;4.35;78.16;97528.78;6187391;23;20173;-70
2023/01/17 03:35:40;;;;;;;3.40;2.10;;;;;;;4.40;78.52;97525.38;6185464;23;20197;-72
2023/01/17 03:38:11;;;;;;;3.10;1.80;;;;;;;4.39;78.75;97529.09;6185515;23;20176;-69
2023/01/17 03:40:40;;;;;;;2.00;1.73;;;;;;;4.38;79.16;97528.28;6185243;23;20170;-71
2023/01/17 03:43:10;;;;;;;2.20;1.70;;;;;;;4.53;78.85;97535.72;6185363;23;20169;-71
2023/01/17 03:45:39;;;;;;;1.85;1.75;;;;;;;4.55;78.75;97538.94;6184997;23;20185;-71
2023/01/17 03:48:09;;;;;;;2.70;1.88;;;;;;;4.64;78.79;97537.50;6185141;23;20174;-71
2023/01/17 03:50:38;;;;;;;3.03;1.90;;;;;;;4.74;78.45;97539.53;6185213;23;20224;-70
2023/01/17 03:53:07;;;;;;;1.50;1.40;;;;;;;4.80;78.50;97533.16;6185768;23;20169;-71
2023/01/17 03:55:38;;;;;;;2.88;1.60;;;;;;;4.79;78.63;97535.03;6185123;23;20280;-71
2023/01/17 03:58:07;;;;;;;1.98;1.35;;;;;;;4.90;78.52;97535.16;6185167;23;20572;-71
2023/01/17 04:00:36;;;;;;;2.70;1.90;;;;;;;4.97;78.15;97543.84;6185476;23;20184;-71
2023/01/17 04:03:06;;;;;;;4.07;1.70;;;;;;;4.98;78.44;97532.09;6185264;23;20532;-72
2023/01/17 04:05:35;;;;;;;1.42;1.13;;;;;;;5.13;78.17;97546.47;6184949;23;20248;-71
2023/01/17 04:08:05;;;;;;;1.40;1.20;;;;;;;5.14;77.94;97537.38;6185208;23;20223;-71
2023/01/17 04:10:35;;;;;;;1.77;1.20;;;;;;;4.98;78.45;97550.84;6184953;23;20174;-72
2023/01/17 04:13:05;;;;;;;1.40;1.17;;;;;;;5.02;78.39;97554.63;6185224;23;20170;-70
2023/01/17 04:15:35;;;;;;;1.80;1.30;;;;;;;5.03;78.55;97550.91;6184821;23;20201;-71
2023/01/17 04:18:05;;;;;;;1.75;1.23;;;;;;;5.19;77.60;97540.13;6185299;23;20510;-72
2023/01/17 04:20:36;;;;;;;2.38;1.02;;;;;;;5.04;77.89;97547.16;6185124;23;20166;-72
2023/01/17 04:23:07;;;;;;;2.60;1.60;;;;;;;5.15;78.29;97554.28;6184743;23;20161;-71
2023/01/17 04:25:36;;;;;;;1.40;1.13;;;;;;;5.08;77.74;97559.03;6184831;23;20193;-70
2023/01/17 04:28:07;;;;;;;2.42;1.20;;;;;;;5.11;78.59;97548.59;6184569;23;20581;-72
2023/01/17 04:30:36;;;;;;;3.10;1.70;;;;;;;5.17;78.29;97554.84;6184747;23;20232;-72
2023/01/17 04:33:22;;;;;;;1.30;1.08;;;;;;;5.12;78.63;97554.78;6184627;23;20169;-72
2023/01/17 04:35:52;;;;;;;2.35;0.98;;;;;;;5.07;79.20;97554.72;6184297;23;20580;-71
2023/01/17 04:38:22;;;;;;;2.20;1.10;;;;;;;5.14;79.04;97558.00;6184523;23;20165;-71
2023/01/17 04:40:51;;;;;;;1.80;1.00;;;;;;;5.21;79.26;97564.00;6184788;23;20180;-70
2023/01/17 04:43:22;;;;;;;1.30;1.15;;;;;;;5.14;79.47;97560.69;6184433;23;20169;-71
2023/01/17 04:45:55;;;;;;;1.15;0.80;;;;;;;5.05;79.93;97560.31;6184261;23;20268;-71
2023/01/17 04:48:26;;;;;;;1.60;1.10;;;;;;;5.12;80.22;97568.19;6186028;23;20263;-72
2023/01/17 04:51:00;;;;;;;2.60;1.23;;;;;;;5.27;79.79;97568.38;6184399;23;20165;-71
2023/01/17 04:53:29;;;;;;;1.00;0.90;;;;;;;5.11;80.61;97575.41;6184758;23;20212;-71
2023/01/17 04:55:59;;;;;;;1.83;1.15;;;;;;;5.21;82.18;97580.09;6186134;23;20645;-71
2023/01/17 04:58:29;;;;;;;1.40;1.25;;;;;;;5.08;83.32;97585.81;6186203;23;20606;-71
2023/01/17 05:01:02;;;;;;;2.00;1.33;;;;;;;4.91;84.90;97585.03;6186932;23;20174;-71
2023/01/17 05:03:35;;;;;;;2.00;1.38;;;;;;;4.87;85.22;97583.91;6186703;23;20271;-71
2023/01/17 05:06:04;;;;;;;2.42;1.25;;;;;;;4.96;84.41;97580.53;6187005;23;20201;-71
2023/01/17 05:08:33;;;;;;;1.10;0.98;;;;;;;4.82;85.23;97577.41;6187877;23;20185;-71
2023/01/17 05:11:03;;;;;;;1.58;1.17;;;;;;;4.90;84.33;97588.75;6186697;23;20235;-70
2023/01/17 05:13:33;;;;;;;2.08;1.38;;;;;;;4.86;84.74;97592.97;6191855;23;20174;-71
2023/01/17 05:16:02;;;;;;;1.42;0.75;;;;;;;4.78;84.50;97600.38;6183823;23;20197;-71
2023/01/17 05:18:32;;;;;;;1.88;1.30;;;;;;;4.85;84.97;97602.06;6183931;23;20169;-71
2023/01/17 05:21:04;;;;;;;1.80;1.08;;;;;;;4.93;84.55;97601.66;6183335;23;20173;-71
2023/01/17 05:23:34;;;;;;;3.72;1.67;;;;;;;5.05;84.02;97603.19;6183761;23;20502;-70
2023/01/17 05:26:03;;;;;;;1.45;1.17;;;;;;;5.06;84.27;97612.84;6183806;23;20236;-71
2023/01/17 05:28:34;;;;;;;1.35;0.90;;;;;;;5.09;83.45;97619.56;6183963;23;20173;-71
2023/01/17 05:31:03;;;;;;;3.05;0.98;;;;;;;5.06;84.50;97620.06;6183320;23;20553;-71
2023/01/17 05:33:32;;;;;;;1.30;1.20;;;;;;;5.13;84.69;97626.88;6185764;23;20632;-71
2023/01/17 05:36:02;;;;;;;1.98;1.42;;;;;;;5.09;84.56;97624.94;6183564;23;20549;-71
2023/01/17 05:38:31;;;;;;;2.60;1.30;;;;;;;5.29;83.90;97630.59;6183769;23;20220;-71
2023/01/17 05:41:01;;;;;;;1.60;1.27;;;;;;;5.17;83.27;97632.56;6183109;23;20543;-70
2023/01/17 05:43:30;;;;;;;1.13;0.90;;;;;;;5.19;82.55;97630.44;6185330;23;20212;-70
2023/01/17 05:46:01;;;;;;;2.53;1.40;;;;;;;5.24;82.25;97635.88;6183548;23;20185;-72
2023/01/17 05:48:30;;;;;;;1.27;0.85;;;;;;;5.21;82.81;97634.50;6183670;23;20177;-70
2023/01/17 05:51:00;;;;;;;1.73;1.42;;;;;;;5.26;83.00;97636.44;6183568;23;20634;-70
2023/01/17 05:53:29;;;;;;;1.70;1.50;;;;;;;5.34;82.28;97638.69;6183470;23;20169;-71
2023/01/17 05:55:58;;;;;;;2.20;1.30;;;;;;;5.32;81.94;97646.19;6183468;23;20193;-72
2023/01/17 05:58:28;;;;;;;1.60;1.17;;;;;;;5.35;81.99;97656.41;6183361;23;20169;-71
2023/01/17 06:00:57;;;;;;;3.40;1.52;;;;;;;5.38;80.96;97660.44;6183636;23;20173;-72
2023/01/17 06:03:27;;;;;;;1.92;1.75;;;;;;;5.43;81.10;97664.03;6185274;23;20165;-70
2023/01/17 06:05:57;;;;;;;1.40;1.30;;;;;;;5.37;80.68;97672.25;6184032;23;20193;-71
2023/01/17 06:08:26;;;;;;;3.10;1.73;;;;;;;5.36;81.38;97676.81;6183839;23;20173;-71
2023/01/17 06:10:58;;;;;;;3.08;2.25;;;;;;;5.38;80.49;97671.19;6184075;23;20688;-71
2023/01/17 06:13:27;;;;;;;2.85;1.73;;;;;;;5.37;81.58;97675.75;6184199;23;20518;-70
2023/01/17 06:16:01;;;;;;;1.88;1.40;;;;;;;5.36;80.43;97684.03;6183463;23;20186;-70
2023/01/17 06:18:32;;;;;;;1.70;1.50;;;;;;;5.29;81.42;97686.06;6185091;23;20150;-69
2023/01/17 06:21:01;;;;;;;2.70;1.58;;;;;;;5.21;81.80;97687.31;6183549;23;20176;-71
2023/01/17 06:23:31;;;;;;;5.45;1.65;;;;;;;5.29;80.48;97686.06;6185092;23;20165;-71
2023/01/17 06:26:03;;;;;;;2.20;1.40;;;;;;;5.27;81.15;97680.97;6183287;23;20661;-71
2023/01/17 06:28:33;;;;;;;1.90;1.52;;;;;;;5.32;80.72;97688.28;6183754;23;20610;-72
2023/01/17 06:31:07;;;;;;;2.28;1.52;;;;;;;5.20;81.00;97694.53;6183437;23;20193;-72
2023/01/17 06:33:38;;;;;;;2.05;1.67;;;;;;;5.30;80.84;97701.09;6183387;23;20173;-70
2023/01/17 06:36:07;;;;;;;2.13;1.42;;;;;;;5.25;80.54;97699.97;6183528;23;20190;-71
2023/01/17 06:38:37;;;;;;;2.50;2.17;;;;;;;5.21;80.58;97698.03;6185334;23;20177;-71
2023/01/17 06:41:07;;;;;;;2.00;1.80;;;;;;;5.26;81.16;97700.78;6184169;23;20177;-71
2023/01/17 06:43:36;;;;;;;1.35;1.15;;;;;;;5.28;80.41;97703.22;6184600;23;20162;-71
2023/01/17 06:46:06;;;;;;;1.70;1.40;;;;;;;5.32;80.38;97705.16;6185735;23;20212;-71
2023/01/17 06:48:35;;;;;;;1.92;1.40;;;;;;;5.24;79.91;97710.91;6187049;23;20188;-71
2023/01/17 06:51:06;;;;;;;1.77;1.20;;;;;;;5.03;81.36;97711.69;6185935;23;20180;-71
2023/01/17 06:53:35;;;;;;;2.08;1.63;;;;;;;5.19;81.52;97716.19;6186661;23;20625;-71
2023/01/17 06:56:05;;;;;;;2.80;2.20;;;;;;;5.28;81.59;97727.34;6185970;23;20252;-70
2023/01/17 06:58:34;;;;;;;2.20;1.65;;;;;;;5.27;81.15;97729.22;6186231;23;20264;-71
2023/01/17 07:01:08;;;;;;;3.05;1.55;;;;;;;5.06;80.99;97728.06;6186386;23;20173;-70
2023/01/17 07:03:37;;;;;;;2.33;1.20;;;;;;;5.20;81.95;97740.09;6186490;23;20240;-72
2023/01/17 07:06:09;;;;;;;2.17;1.63;;;;;;;5.25;80.80;97736.69;6186324;23;20189;-71
2023/01/17 07:08:39;;;;;;;1.30;1.05;;;;;;;5.23;80.24;97736.09;6186295;23;20169;-72
2023/01/17 07:11:08;;;;;;;1.63;1.50;;;;;;;5.20;80.43;97756.19;6186413;23;20223;-71
2023/01/17 07:13:39;;;;;;;2.08;1.85;;;;;;;5.24;80.13;97756.50;6186139;23;20638;-70
2023/01/17 07:16:08;;;;;;;1.98;1.70;;;;;;;5.15;80.32;97749.91;6185702;23;20193;-70
2023/01/17 07:18:38;;;;;;;1.85;1.23;;;;;;;5.13;80.29;97749.38;6187860;23;20161;-72
2023/01/17 07:21:13;;;;;;;2.20;1.60;;;;;;;5.20;80.29;97750.00;6187352;23;20173;-72
2023/01/17 07:23:43;;;;;;;4.18;2.22;;;;;;;5.10;80.64;97761.38;6186096;23;20656;-72
2023/01/17 07:26:12;;;;;;;3.28;2.83;;;;;;;5.09;80.53;97769.63;6185210;23;20213;-71
2023/01/17 07:28:41;;;;;;;2.15;1.70;;;;;;;5.14;80.26;97757.13;6186165;23;20170;-71
2023/01/17 07:31:10;;;;;;;2.80;1.95;;;;;;;5.20;79.13;97761.53;6187916;23;20173;-71
2023/01/17 07:33:39;;;;;;;2.15;1.73;;;;;;;5.05;79.89;97763.16;6188384;23;20177;-71
2023/01/17 07:36:11;;;;;;;2.58;1.85;;;;;;;5.11;80.07;97762.19;6185912;23;20198;-71
2023/01/17 07:38:42;;;;;;;3.45;2.20;;;;;;;5.17;79.96;97761.22;6185371;23;20169;-70
2023/01/17 07:41:11;;;;;;;1.90;1.73;;;;;;;5.17;79.51;97771.94;6185694;23;20161;-71
2023/01/17 07:43:41;;;;;;;2.53;2.10;;;;;;;5.16;79.29;97770.31;6185546;23;20621;-72
2023/01/17 07:46:10;;;;;;;2.78;2.13;;;;;;;5.19;79.65;97783.22;6185008;23;20189;-69
2023/01/17 07:48:39;;;;;;;2.13;1.70;;;;;;;5.12;80.19;97774.53;6185235;23;20195;-72
2023/01/17 07:51:10;;;;;;;4.03;1.95;;;;;;;5.30;79.72;97771.59;6185509;23;20177;-71
2023/01/17 07:53:39;;;;;;;3.25;2.42;;;;;;;5.28;78.93;97795.16;6188509;23;20192;-72
2023/01/17 07:56:09;;;;;;;2.80;2.00;;;;;;;5.18;78.38;97785.06;6190408;23;20197;-72
2023/01/17 07:58:38;;;;;;;3.65;2.20;;;;;;;5.09;78.59;97783.03;6192956;23;20173;-72
2023/01/17 08:01:09;;;;;;;2.15;1.90;;;;;;;5.05;79.28;97785.41;6194114;23;20176;-71
2023/01/17 08:03:39;;;;;;;2.90;2.47;;;;;;;5.22;79.33;97798.84;6188030;23;20172;-71
2023/01/17 08:06:18;;;;;;;2.67;2.25;;;;;;;5.20;79.15;97790.22;6186393;23;20537;-71
2023/01/17 08:08:48;;;;;;;3.40;2.40;;;;;;;5.21;78.77;97794.50;6189494;23;20252;-72
2023/01/17 08:11:17;;;;;;;2.90;2.20;;;;;;;5.30;78.47;97793.06;6184943;23;20169;-69
2023/01/17 08:13:55;;;;;;;3.15;1.48;;;;;;;5.14;78.10;97794.66;6185027;23;20226;-70
2023/01/17 08:16:24;;;;;;;2.60;1.98;;;;;;;5.16;78.90;97791.75;6184620;23;20197;-70
2023/01/17 08:18:57;;;;;;;3.80;2.08;;;;;;;5.19;78.82;97800.13;6184544;23;20228;-71
2023/01/17 08:21:38;;;;;;;2.17;1.60;;;;;;;5.20;79.21;97809.78;6184106;23;20200;-71
2023/01/17 08:24:13;;;;;;;2.38;1.70;;;;;;;5.34;78.70;97794.19;6183865;23;20169;-71
2023/01/17 08:26:55;;;;;;;4.10;2.67;;;;;;;5.41;78.09;97799.41;6184479;23;20186;-70
2023/01/17 08:29:40;;;;;;;3.10;2.55;;;;;;;5.46;77.69;97813.72;6184801;23;20613;-70
2023/01/17 08:32:24;;;;;;;3.92;2.50;;;;;;;5.43;77.17;97816.84;6184180;23;20704;-71
2023/01/17 08:35:02;;;;;;;1.70;1.52;;;;;;;5.28;77.84;97816.59;6183952;23;20189;-70
2023/01/17 08:37:42;;;;;;;2.35;2.15;;;;;;;5.45;77.77;97819.31;6183891;23;20182;-70
2023/01/17 08:40:16;;;;;;;2.60;2.00;;;;;;;5.53;77.63;97824.25;6183203;23;20178;-70
2023/01/17 08:43:01;;;;;;;3.30;1.83;;;;;;;5.54;77.73;97832.06;6184308;23;20176;-71
2023/01/17 08:45:42;;;;;;;2.15;1.50;;;;;;;5.48;76.61;97827.66;6185494;23;20629;-69
2023/01/17 08:48:29;;;;;;;2.60;2.40;;;;;;;5.40;76.63;97832.63;6184023;23;20220;-74
2023/01/17 08:51:09;;;;;;;1.50;1.17;;;;;;;5.48;76.49;97843.75;6184106;23;20173;-72
2023/01/17 08:53:43;;;;;;;2.28;1.90;;;;;;;5.55;76.61;97831.00;6185452;23;20157;-71
2023/01/17 08:56:29;;;;;;;2.50;1.60;;;;;;;5.55;75.90;97836.38;6183857;23;20657;-71
2023/01/17 08:59:09;;;;;;;1.33;1.20;;;;;;;5.50;74.82;97838.16;6183747;23;20529;-71
2023/01/17 09:01:44;;;;;;;2.75;1.70;;;;;;;5.44;75.13;97845.31;6185307;23;20248;-71
2023/01/17 09:04:18;;;;;;;1.42;1.15;;;;;;;5.58;75.09;97846.59;6184153;23;20193;-71
2023/01/17 09:06:55;;;;;;;1.65;1.45;;;;;;;5.57;74.36;97853.03;6183902;23;20212;-71
2023/01/17 09:09:37;;;;;;;1.75;1.20;;;;;;;5.56;74.65;97856.78;6184517;23;20173;-70
2023/01/17 09:12:10;;;;;;;2.70;1.40;;;;;;;5.48;74.92;97870.56;6184658;23;20509;-71
2023/01/17 09:14:42;;;;;;;1.40;1.13;;;;;;;5.53;74.84;97856.44;6184381;23;20553;-71
2023/01/17 09:17:14;;;;;;;2.40;1.58;;;;;;;5.62;74.21;97871.88;6184250;23;20649;-70
2023/01/17 09:19:58;;;;;;;1.17;1.05;;;;;;;5.78;73.37;97869.44;6184187;23;20169;-72
2023/01/17 09:22:38;;;;;;;1.33;1.00;;;;;;;5.92;73.07;97870.75;6184297;23;20165;-72
2023/01/17 09:25:15;;;;;;;2.42;2.08;;;;;;;6.06;72.11;97882.78;6183390;23;20195;-70
2023/01/17 09:27:57;;;;;;;1.10;0.80;;;;;;;6.10;71.70;97882.03;6184210;23;20184;-73
2023/01/17 09:30:35;;;;;;;1.55;0.98;;;;;;;6.03;71.94;97888.66;6184049;23;20217;-71
2023/01/17 09:33:11;;;;;;;2.00;1.20;;;;;;;6.10;70.71;97894.66;6183698;23;20170;-71
2023/01/17 09:35:53;;;;;;;1.20;0.90;;;;;;;6.17;70.37;97895.31;6185220;23;20574;-70
2023/01/17 09:38:27;;;;;;;1.10;0.80;;;;;;;6.30;69.70;97899.50;6183531;23;20189;-71
2023/01/17 09:41:26;;;;;;;1.20;0.80;;;;;;;5.93;71.00;97905.41;6183525;23;20696;-72
2023/01/17 09:44:04;;;;;;;3.33;1.25;;;;;;;5.67;73.50;97917.56;6185202;23;20549;-70
2023/01/17 09:46:46;;;;;;;3.25;2.25;;;;;;;5.50;74.60;97922.09;6184237;23;20193;-70
2023/01/17 09:49:37;;;;;;;3.60;2.15;;;;;;;5.47;75.38;97933.28;6183688;23;20207;-72
2023/01/17 09:52:12;;;;;;;1.00;0.80;;;;;;;5.45;75.45;97924.69;6184290;23;20169;-71
2023/01/17 09:54:58;;;;;;;1.35;0.80;;;;;;;5.46;74.91;97942.41;6184122;23;20620;-70
2023/01/17 09:57:48;;;;;;;1.63;0.93;;;;;;;5.56;74.50;97937.25;6183977;23;20216;-73
2023/01/17 10:00:40;;;;;;;1.40;1.20;;;;;;;5.59;74.42;97947.47;6183723;23;20168;-73
2023/01/17 10:03:33;;;;;;;2.30;1.38;;;;;;;5.72;74.91;97954.38;6189235;23;20610;-71
2023/01/17 10:06:22;;;;;;;2.97;1.00;;;;;;;5.63;74.86;97958.53;6186358;23;20649;-71
2023/01/17 10:09:21;;;;;;;1.33;1.02;;;;;;;5.58;74.59;97966.47;6185371;23;20718;-71
2023/01/17 10:12:14;;;;;;;1.30;0.98;;;;;;;5.64;75.07;97960.97;6185093;23;20641;-72
2023/01/17 10:15:08;;;;;;;2.10;1.40;;;;;;;5.45;74.83;97964.94;6184505;23;20532;-72
2023/01/17 10:17:50;;;;;;;1.77;1.23;;;;;;;5.42;75.34;97970.75;6184827;23;20646;-72
2023/01/17 10:20:46;;;;;;;1.65;1.05;;;;;;;5.46;74.82;97971.09;6184684;23;20526;-71
2023/01/17 10:23:37;;;;;;;1.30;0.93;;;;;;;5.44;75.47;97974.00;6183509;23;20181;-72
2023/01/17 10:26:15;;;;;;;1.25;1.00;;;;;;;5.61;75.18;97977.56;6185610;23;20185;-71
2023/01/17 10:28:53;;;;;;;1.42;0.82;;;;;;;5.66;74.48;97984.88;6183804;23;20212;-72
2023/01/17 10:31:45;;;;;;;1.30;1.20;;;;;;;5.37;74.75;97994.81;6183894;23;20165;-72
2023/01/17 10:34:34;;;;;;;1.48;0.90;;;;;;;5.11;75.60;97990.81;6183818;23;20189;-73
2023/01/17 10:37:17;;;;;;;1.30;0.80;;;;;;;5.02;75.83;98005.63;6183638;23;20189;-73
2023/01/17 10:39:53;;;;;;;1.98;1.10;;;;;;;4.92;76.78;98015.31;6183438;23;20550;-71
2023/01/17 10:42:39;;;;;;;2.17;0.82;;;;;;;5.02;77.06;98020.91;6183886;23;20644;-72
2023/01/17 10:45:28;;;;;;;3.60;1.00;;;;;;;4.89;76.31;98021.16;6184983;23;20182;-70
2023/01/17 10:48:42;;;;;;;1.00;0.80;;;;;;;4.93;75.63;98022.31;6183592;23;20149;-73
2023/01/17 10:51:58;;;;;;;2.35;0.82;;;;;;;4.92;74.93;98026.03;6178497;23;20228;-72
2023/01/17 10:55:03;;;;;;;1.20;1.00;;;;;;;4.91;74.36;98024.41;6166133;23;20196;-72
2023/01/17 10:57:58;;;;;;;1.52;0.80;;;;;;;4.96;74.82;98029.88;6183581;23;20664;-72
2023/01/17 11:00:50;;;;;;;1.63;1.08;;;;;;;5.19;74.35;98033.31;6182513;23;20189;-71
2023/01/17 11:03:23;;;;;;;1.95;1.20;;;;;;;5.13;73.94;98038.81;6182670;23;20212;-71
2023/01/17 11:06:22;;;;;;;2.55;1.45;;;;;;;5.04;74.33;98037.53;6183757;23;20232;-71
2023/01/17 11:09:10;;;;;;;1.42;0.93;;;;;;;5.07;74.64;98037.09;6183456;23;20510;-73
2023/01/17 11:11:51;;;;;;;2.25;1.40;;;;;;;4.99;74.91;98040.09;6186449;23;20704;-73
2023/01/17 11:14:39;;;;;;;1.60;0.85;;;;;;;5.02;75.28;98047.69;6183715;23;20174;-73
2023/01/17 11:17:29;;;;;;;1.83;1.20;;;;;;;4.86;75.66;98048.41;6184932;23;20652;-72
2023/01/17 11:20:16;;;;;;;1.50;1.17;;;;;;;4.74;75.87;98062.59;6187014;23;20180;-70
2023/01/17 11:23:19;;;;;;;1.75;1.60;;;;;;;4.75;75.39;98050.84;6184387;23;20174;-73
2023/01/17 11:25:56;;;;;;;1.00;0.65;;;;;;;4.80;76.40;98061.69;6184466;23;20583;-73
2023/01/17 11:28:31;;;;;;;1.45;0.80;;;;;;;4.70;76.75;98066.81;6184579;23;20181;-73
2023/01/17 11:31:26;;;;;;;1.40;0.80;;;;;;;4.31;78.43;98072.81;6182645;23;20510;-74
2023/01/17 11:34:25;;;;;;;1.30;0.82;;;;;;;4.42;79.09;98072.03;6184311;23;20617;-72
2023/01/17 11:37:18;;;;;;;1.30;0.80;;;;;;;4.24;80.22;98082.81;6184083;23;20174;-74
2023/01/17 11:40:08;;;;;;;1.40;0.88;;;;;;;4.04;82.33;98083.13;6186153;23;20161;-72
2023/01/17 11:42:48;;;;;;;1.42;0.98;;;;;;;3.68;84.77;98096.63;6185218;23;20173;-73
2023/01/17 11:45:35;;;;;;;4.20;1.73;;;;;;;3.66;86.07;98094.16;6184962;23;20199;-72
2023/01/17 11:48:14;;;;;;;1.48;1.10;;;;;;;3.45;87.44;98097.28;6181095;23;20538;-71
2023/01/17 11:51:08;;;;;;;2.85;1.00;;;;;;;3.63;88.97;98102.59;6185409;23;20519;-71
2023/01/17 11:53:48;;;;;;;2.45;1.10;;;;;;;3.73;89.02;98102.88;6184698;23;20258;-70
2023/01/17 11:56:47;;;;;;;2.53;1.90;;;;;;;3.91;88.43;98110.91;6185100;23;20185;-72
2023/01/17 11:59:39;;;;;;;3.17;1.70;;;;;;;3.88;87.84;98095.28;6185175;23;20208;-70
2023/01/17 12:02:49;;;;;;;1.05;0.85;;;;;;;4.22;88.26;98095.63;6185178;23;20253;-71
2023/01/17 12:06:04;;;;;;;2.65;1.40;;;;;;;4.54;87.40;98099.66;6184534;23;20272;-70
2023/01/17 12:09:03;;;;;;;2.28;1.42;;;;;;;4.44;86.75;98099.41;6185834;23;20177;-72
2023/01/17 12:14:50;;;;;;;2.30;1.42;;;;;;;4.67;86.14;98104.78;6184995;23;20613;-71
2023/01/17 12:17:35;;;;;;;2.47;1.33;;;;;;;4.68;86.67;98098.38;6186105;23;20236;-71
2023/01/17 12:20:29;;;;;;;2.83;1.30;;;;;;;4.64;86.62;98102.56;6187958;23;20156;-72
2023/01/17 12:23:27;;;;;;;1.65;1.25;;;;;;;4.47;85.84;98115.00;6185780;23;20161;-71
2023/01/17 12:26:25;;;;;;;2.00;1.33;;;;;;;4.57;86.02;98120.59;6188304;23;20193;-72
2023/01/17 12:29:36;;;;;;;1.45;1.25;;;;;;;4.94;85.51;98115.03;6189068;23;20511;-71
2023/01/17 12:32:41;;;;;;;4.47;1.98;;;;;;;5.01;83.92;98115.72;6184702;23;20174;-71
2023/01/17 12:35:16;;;;;;;2.35;1.20;;;;;;;5.29;82.87;98123.03;6184253;23;20196;-71
2023/01/17 12:38:00;;;;;;;2.75;1.70;;;;;;;5.37;82.71;98118.16;6189567;23;20172;-72
2023/01/17 12:40:44;;;;;;;2.75;1.13;;;;;;;5.31;80.52;98123.63;6198451;23;20173;-71
2023/01/17 12:43:27;;;;;;;3.40;1.60;;;;;;;5.27;81.03;98130.53;6193639;23;20166;-70
2023/01/17 12:46:09;;;;;;;5.93;1.30;;;;;;;5.21;80.08;98137.63;6188600;23;20200;-72
2023/01/17 12:48:42;;;;;;;4.38;2.60;;;;;;;5.09;80.60;98145.66;6184613;23;20164;-71
2023/01/17 12:51:28;;;;;;;2.00;1.30;;;;;;;5.03;79.82;98143.13;6184270;23;20165;-70
2023/01/17 12:54:13;;;;;;;3.60;1.17;;;;;;;4.94;79.91;98149.88;6184907;23;20169;-73
2023/01/17 12:56:55;;;;;;;2.17;1.65;;;;;;;4.93;79.56;98146.38;6185286;23;20280;-72
2023/01/17 12:59:47;;;;;;;3.05;1.23;;;;;;;4.92;78.83;98155.47;6185532;23;20212;-72
2023/01/17 13:02:39;;;;;;;1.70;1.27;;;;;;;5.08;77.26;98157.44;6187715;23;20173;-73
2023/01/17 13:05:31;;;;;;;2.47;1.00;;;;;;;5.05;76.48;98159.78;6186002;23;20193;-71
2023/01/17 13:11:17;;;;;;;2.83;1.80;;;;;;;5.34;75.92;98161.50;6184255;23;20173;-72
2023/01/17 13:13:59;;;;;;;3.58;2.00;;;;;;;5.46;74.88;98166.88;6184910;23;20569;-71
2023/01/17 13:16:39;;;;;;;2.53;1.50;;;;;;;5.37;74.36;98169.09;6184654;23;20583;-72
2023/01/17 13:19:25;;;;;;;5.70;1.48;;;;;;;5.44;74.32;98159.06;6184078;23;20653;-70
2023/01/17 13:22:21;;;;;;;3.55;1.60;;;;;;;5.61;72.25;98181.44;6184044;23;20236;-72
2023/01/17 13:25:06;;;;;;;2.00;1.35;;;;;;;5.34;72.90;98176.78;6186205;23;20216;-71
2023/01/17 13:28:08;;;;;;;4.45;1.58;;;;;;;5.73;71.95;98173.34;6184408;23;20257;-72
2023/01/17 13:31:13;;;;;;;1.80;1.10;;;;;;;6.11;70.86;98180.84;6182692;23;20177;-71
2023/01/17 13:34:25;;;;;;;4.13;1.45;;;;;;;6.02;69.51;98177.72;6183996;23;20169;-72
2023/01/17 13:37:38;;;;;;;3.38;1.70;;;;;;;6.13;69.66;98194.84;6185962;23;20206;-73
2023/01/17 13:40:36;;;;;;;2.33;1.60;;;;;;;5.99;69.52;98194.31;6184797;23;20185;-71
2023/01/17 13:43:18;;;;;;;4.43;1.25;;;;;;;5.67;69.89;98196.56;6186207;23;20170;-71
2023/01/17 13:46:01;;;;;;;1.65;1.27;;;;;;;5.59;70.46;98215.72;6183733;23;20197;-73
2023/01/17 13:48:36;;;;;;;2.45;1.27;;;;;;;5.27;71.05;98208.28;6184551;23;20165;-72
2023/01/17 13:51:12;;;;;;;3.88;1.65;;;;;;;5.20;71.31;98227.13;6184646;23;20173;-71
2023/01/17 13:53:58;;;;;;;4.05;1.80;;;;;;;5.05;72.29;98219.53;6186205;23;20153;-73
2023/01/17 13:56:42;;;;;;;1.70;1.30;;;;;;;4.99;72.45;98225.00;6184751;23;20185;-72
2023/01/17 13:59:45;;;;;;;3.95;1.77;;;;;;;5.24;72.61;98218.41;6184259;23;20208;-71
2023/01/17 14:02:41;;;;;;;2.25;1.40;;;;;;;5.35;71.74;98227.50;6183757;23;20169;-72
2023/01/17 14:05:20;;;;;;;2.60;1.52;;;;;;;5.45;71.50;98226.91;6183866;23;20193;-72